KGYR/GYR METAR and TAF weather

Enter ICAO airport designator
Station Type Date Time Source
KGYR METAR 2019/08/19 03:47 UTC NOAA

KGYR 190347Z VRB05KT 10SM FEW160 SCT250 34/08 A2978 RMK LAST


Station Type Date Time Source
KGYR Decoded METAR 2019/08/19 03:47 UTC NOAA

Station name not available
Aug 18, 2019 - 11:47 PM EDT / 2019.08.19 0347 UTC
Wind: Variable at 6 MPH (5 KT):0
Visibility: 10 mile(s):0
Sky conditions: partly cloudy
Temperature: 93 F (34 C)
Dew Point: 46 F (8 C)
Relative Humidity: 20%
Pressure (altimeter): 29.78 in. Hg (1008 hPa)
ob: KGYR 190347Z VRB05KT 10SM FEW160 SCT250 34/08 A2978 RMK LAST
cycle: 4

Station Type Date Time Source
KGYR TAF UTC NOAA

Error!

Example: see airport list